createdAt,value
2019-06-27T00:00:23.111Z,3.50
2019-06-27T00:01:23.108Z,3.70
2019-06-27T00:02:23.111Z,3.50
2019-06-27T00:03:23.111Z,3.00
2019-06-27T00:04:23.106Z,3.70
2019-06-27T00:05:23.108Z,3.40
2019-06-27T00:06:23.103Z,3.70
2019-06-27T00:07:23.100Z,3.20
2019-06-27T00:08:23.099Z,3.50
2019-06-27T00:09:23.165Z,3.40
2019-06-27T00:10:23.102Z,3.60
2019-06-27T00:11:23.100Z,4.10
2019-06-27T00:12:23.103Z,3.50
2019-06-27T00:13:23.101Z,4.20
2019-06-27T00:14:23.097Z,3.50
2019-06-27T00:15:23.096Z,3.80
2019-06-27T00:16:23.100Z,4.00
2019-06-27T00:17:23.097Z,3.90
2019-06-27T00:18:23.093Z,4.30
2019-06-27T00:19:23.092Z,3.80
2019-06-27T00:20:23.148Z,3.80
2019-06-27T00:21:23.088Z,4.00
2019-06-27T00:22:23.104Z,3.90
2019-06-27T00:23:23.089Z,4.00
2019-06-27T00:24:23.088Z,4.30
2019-06-27T00:25:23.086Z,4.10
2019-06-27T00:26:23.084Z,4.60
2019-06-27T00:27:23.081Z,4.40
2019-06-27T00:28:23.083Z,4.80
2019-06-27T00:29:23.080Z,4.70
2019-06-27T00:30:23.111Z,5.40
2019-06-27T00:31:23.088Z,5.00
2019-06-27T00:32:23.080Z,4.70
2019-06-27T00:33:23.078Z,5.10
2019-06-27T00:34:23.078Z,4.90
2019-06-27T00:35:23.079Z,4.90
2019-06-27T00:36:23.074Z,5.10
2019-06-27T00:37:23.075Z,5.20
2019-06-27T00:38:23.067Z,4.80
2019-06-27T00:39:23.065Z,4.70
2019-06-27T00:40:23.067Z,5.50
2019-06-27T00:41:23.067Z,5.20
2019-06-27T00:42:23.068Z,4.80
2019-06-27T00:43:23.067Z,5.50
2019-06-27T00:44:23.070Z,5.50
2019-06-27T00:45:23.061Z,5.20
2019-06-27T00:46:23.056Z,5.60
2019-06-27T00:47:23.055Z,4.90
2019-06-27T00:48:23.059Z,5.80
2019-06-27T00:49:23.055Z,5.70
2019-06-27T00:50:23.050Z,5.80
2019-06-27T00:51:23.050Z,6.00
2019-06-27T00:52:23.050Z,5.30
2019-06-27T00:53:23.048Z,5.10
2019-06-27T00:54:23.051Z,5.00
2019-06-27T00:55:23.059Z,5.40
2019-06-27T00:56:23.048Z,5.30
2019-06-27T00:57:23.051Z,6.10
2019-06-27T00:58:23.041Z,5.50
2019-06-27T00:59:23.039Z,5.40
2019-06-27T01:00:23.036Z,5.20
2019-06-27T01:01:23.032Z,5.30
2019-06-27T01:02:23.035Z,5.10
2019-06-27T01:03:23.033Z,5.10
2019-06-27T01:04:23.027Z,5.80
2019-06-27T01:05:23.024Z,5.20
2019-06-27T01:06:23.028Z,5.30
2019-06-27T01:07:23.033Z,5.10
2019-06-27T01:08:23.025Z,5.20
2019-06-27T01:09:23.025Z,5.00
2019-06-27T01:10:23.022Z,5.10
2019-06-27T01:11:23.018Z,5.40
2019-06-27T01:12:23.019Z,5.30
2019-06-27T01:13:23.016Z,5.00
2019-06-27T01:14:23.016Z,5.70
2019-06-27T01:15:23.015Z,5.20
2019-06-27T01:16:23.012Z,4.80
2019-06-27T01:17:23.011Z,5.10
2019-06-27T01:18:23.001Z,5.40
2019-06-27T01:19:23.002Z,5.10
2019-06-27T01:20:23.004Z,5.10
2019-06-27T01:21:23.001Z,5.60
2019-06-27T01:22:22.994Z,4.90
2019-06-27T01:23:22.993Z,4.60
2019-06-27T01:24:22.994Z,4.40
2019-06-27T01:25:22.994Z,4.80
2019-06-27T01:26:22.994Z,4.80
2019-06-27T01:27:30.062Z,4.40
2019-06-27T01:28:22.990Z,4.70
2019-06-27T01:29:23.040Z,4.90
2019-06-27T01:30:22.982Z,4.20
2019-06-27T01:31:22.979Z,4.20
2019-06-27T01:32:22.977Z,4.40
2019-06-27T01:33:22.973Z,4.60
2019-06-27T01:34:22.974Z,5.00
2019-06-27T01:35:22.974Z,4.70
2019-06-27T01:36:22.966Z,4.70
2019-06-27T01:37:22.963Z,5.00
2019-06-27T01:38:22.965Z,4.20
2019-06-27T01:39:22.963Z,5.00
2019-06-27T01:40:22.964Z,4.80
2019-06-27T01:41:22.962Z,4.40
2019-06-27T01:42:22.957Z,4.60
2019-06-27T01:43:22.952Z,4.40
2019-06-27T01:44:22.954Z,4.70
2019-06-27T01:45:22.951Z,4.80
2019-06-27T01:46:22.945Z,4.60
2019-06-27T01:47:22.944Z,4.60
2019-06-27T01:48:22.941Z,4.90
2019-06-27T01:49:22.935Z,5.00
2019-06-27T01:50:22.938Z,4.90
2019-06-27T01:51:22.936Z,4.60
2019-06-27T01:52:22.929Z,4.80
2019-06-27T01:53:22.931Z,4.50
2019-06-27T01:54:22.934Z,5.10
2019-06-27T01:55:22.925Z,4.30
2019-06-27T01:56:22.926Z,4.20
2019-06-27T01:57:22.924Z,4.10
2019-06-27T01:58:22.918Z,4.80
2019-06-27T01:59:22.915Z,4.60
2019-06-27T02:00:22.913Z,4.70
2019-06-27T02:01:22.909Z,5.10
2019-06-27T02:02:22.910Z,5.10
2019-06-27T02:03:22.908Z,5.00
2019-06-27T02:04:22.905Z,4.70
2019-06-27T02:05:22.902Z,4.40
2019-06-27T02:06:22.895Z,4.90
2019-06-27T02:07:22.891Z,4.60
2019-06-27T02:08:22.893Z,5.10
2019-06-27T02:09:22.894Z,4.60
2019-06-27T02:10:22.885Z,5.00
2019-06-27T02:11:22.881Z,4.70
2019-06-27T02:12:22.883Z,4.90
2019-06-27T02:13:22.884Z,5.00
2019-06-27T02:14:22.880Z,4.60
2019-06-27T02:15:22.885Z,5.00
2019-06-27T02:16:22.876Z,5.00
2019-06-27T02:17:22.877Z,4.90
2019-06-27T02:18:22.866Z,5.00
2019-06-27T02:19:22.865Z,5.00
2019-06-27T02:20:22.858Z,5.10
2019-06-27T02:21:22.855Z,5.50
2019-06-27T02:22:22.859Z,5.50
2019-06-27T02:23:22.856Z,5.20
2019-06-27T02:24:22.851Z,5.90
2019-06-27T02:25:22.846Z,5.60
2019-06-27T02:26:22.848Z,5.30
2019-06-27T02:27:22.845Z,5.80
2019-06-27T02:28:22.847Z,6.00
2019-06-27T02:29:22.841Z,6.00
2019-06-27T02:30:22.836Z,5.70
2019-06-27T02:31:22.843Z,6.00
2019-06-27T02:32:22.831Z,5.80
2019-06-27T02:33:22.837Z,5.30
2019-06-27T02:34:22.828Z,5.70
2019-06-27T02:35:22.828Z,6.10
2019-06-27T02:36:22.822Z,6.00
2019-06-27T02:37:22.821Z,6.10
2019-06-27T02:38:22.812Z,6.40
2019-06-27T02:39:22.808Z,6.30
2019-06-27T02:40:22.811Z,6.60
2019-06-27T02:41:22.813Z,6.60
2019-06-27T02:42:22.798Z,6.60
2019-06-27T02:43:22.797Z,6.10
2019-06-27T02:44:22.798Z,7.10
2019-06-27T02:45:22.805Z,6.50
2019-06-27T02:46:22.797Z,6.40
2019-06-27T02:47:22.793Z,7.20
2019-06-27T02:48:22.796Z,6.80
2019-06-27T02:49:22.786Z,7.60
2019-06-27T02:50:22.777Z,6.50
2019-06-27T02:51:22.776Z,6.90
2019-06-27T02:52:22.780Z,7.00
2019-06-27T02:53:22.776Z,6.60
2019-06-27T02:54:22.774Z,7.40
2019-06-27T02:55:22.774Z,6.50
2019-06-27T02:56:22.766Z,7.20
2019-06-27T02:57:22.761Z,7.00
2019-06-27T02:58:31.047Z,7.00
2019-06-27T02:59:22.760Z,7.60
2019-06-27T03:00:22.755Z,7.20
2019-06-27T03:01:22.760Z,7.80
2019-06-27T03:02:22.751Z,8.10
2019-06-27T03:03:22.743Z,7.50
2019-06-27T03:04:22.741Z,7.10
2019-06-27T03:05:22.737Z,7.70
2019-06-27T03:06:22.740Z,7.90
2019-06-27T03:07:22.736Z,7.10
2019-06-27T03:08:22.764Z,7.30
2019-06-27T03:09:22.741Z,7.10
2019-06-27T03:10:22.731Z,7.40
2019-06-27T03:11:22.722Z,8.50
2019-06-27T03:12:22.725Z,8.00
2019-06-27T03:13:22.725Z,7.40
2019-06-27T03:14:22.715Z,7.80
2019-06-27T03:15:22.724Z,7.30
2019-06-27T03:16:22.706Z,7.30
2019-06-27T03:17:22.706Z,6.90
2019-06-27T03:18:22.707Z,7.80
2019-06-27T03:19:22.705Z,7.30
2019-06-27T03:20:22.703Z,7.00
2019-06-27T03:21:22.722Z,7.40
2019-06-27T03:22:22.696Z,7.40
2019-06-27T03:23:22.745Z,7.60
2019-06-27T03:24:22.698Z,7.50
2019-06-27T03:25:22.685Z,7.20
2019-06-27T03:26:22.696Z,8.10
2019-06-27T03:27:22.686Z,7.60
2019-06-27T03:28:22.678Z,8.10
2019-06-27T03:29:22.679Z,8.10
2019-06-27T03:30:22.676Z,8.40
2019-06-27T03:31:22.676Z,8.80
2019-06-27T03:32:22.670Z,9.10
2019-06-27T03:33:22.670Z,9.00
2019-06-27T03:34:22.660Z,9.50
2019-06-27T03:35:22.660Z,9.60
2019-06-27T03:36:22.657Z,9.20
2019-06-27T03:37:22.652Z,9.20
2019-06-27T03:38:22.654Z,9.70
2019-06-27T03:39:22.651Z,8.70
2019-06-27T03:40:22.679Z,8.70
2019-06-27T03:41:22.656Z,9.00
2019-06-27T03:42:22.641Z,9.50
2019-06-27T03:43:22.642Z,9.20
2019-06-27T03:44:22.640Z,9.00
2019-06-27T03:45:22.639Z,9.80
2019-06-27T03:46:22.630Z,9.50
2019-06-27T03:47:22.627Z,9.90
2019-06-27T03:48:22.626Z,9.40
2019-06-27T03:49:22.623Z,10.40
2019-06-27T03:50:22.620Z,9.30
2019-06-27T03:51:22.619Z,8.40
2019-06-27T03:52:22.619Z,7.40
2019-06-27T03:53:22.617Z,6.50
2019-06-27T03:54:22.609Z,6.40
2019-06-27T03:55:22.607Z,5.60
2019-06-27T03:56:22.602Z,5.10
2019-06-27T03:57:22.598Z,5.30
2019-06-27T03:58:22.601Z,5.00
2019-06-27T03:59:22.599Z,4.70
2019-06-27T04:00:22.592Z,4.90
2019-06-27T04:01:22.587Z,5.00
2019-06-27T04:02:22.593Z,5.10
2019-06-27T04:03:22.597Z,5.00
2019-06-27T04:04:22.588Z,5.30
2019-06-27T04:05:22.585Z,5.30
2019-06-27T04:06:22.578Z,5.80
2019-06-27T04:07:22.577Z,6.00
2019-06-27T04:08:22.576Z,5.50
2019-06-27T04:09:22.572Z,5.50
2019-06-27T04:10:22.573Z,5.40
2019-06-27T04:11:22.593Z,5.60
2019-06-27T04:12:22.574Z,4.90
2019-06-27T04:13:22.563Z,5.20
2019-06-27T04:14:22.560Z,6.00
2019-06-27T04:15:22.562Z,5.50
2019-06-27T04:16:22.558Z,5.60
2019-06-27T04:17:22.553Z,6.00
2019-06-27T04:18:22.552Z,5.70
2019-06-27T04:19:22.545Z,6.20
2019-06-27T04:20:22.546Z,6.60
2019-06-27T04:21:22.542Z,6.10
2019-06-27T04:22:22.545Z,6.50
2019-06-27T04:23:22.568Z,5.80
2019-06-27T04:24:22.539Z,6.40
2019-06-27T04:25:22.581Z,6.00
2019-06-27T04:26:22.534Z,7.00
2019-06-27T04:27:22.529Z,6.10
2019-06-27T04:28:22.528Z,6.50
2019-06-27T04:29:33.570Z,6.90
2019-06-27T04:30:22.529Z,6.60
2019-06-27T04:31:22.520Z,8.30
2019-06-27T04:32:22.534Z,11.00
2019-06-27T04:33:22.536Z,10.50
2019-06-27T04:34:22.513Z,10.70
2019-06-27T04:35:22.511Z,9.60
2019-06-27T04:36:22.512Z,10.00
2019-06-27T04:37:22.529Z,9.30
2019-06-27T04:38:22.502Z,10.60
2019-06-27T04:39:22.504Z,9.00
2019-06-27T04:40:22.497Z,9.10
2019-06-27T04:41:22.495Z,8.60
2019-06-27T04:42:22.498Z,8.10
2019-06-27T04:43:22.517Z,8.40
2019-06-27T04:44:22.494Z,8.00
2019-06-27T04:45:22.491Z,8.20
2019-06-27T04:46:22.486Z,7.90
2019-06-27T04:47:22.481Z,8.40
2019-06-27T04:48:22.483Z,7.50
2019-06-27T04:49:22.482Z,6.80
2019-06-27T04:50:22.489Z,6.90
2019-06-27T04:51:22.473Z,6.10
2019-06-27T04:52:22.477Z,6.10
2019-06-27T04:53:22.470Z,5.00
2019-06-27T04:54:22.475Z,5.10
2019-06-27T04:55:22.471Z,5.50
2019-06-27T04:56:22.472Z,5.30
2019-06-27T04:57:22.464Z,5.00
2019-06-27T04:58:22.457Z,5.10
2019-06-27T04:59:22.454Z,5.20
2019-06-27T05:00:22.459Z,5.50
2019-06-27T05:01:22.453Z,5.20
2019-06-27T05:02:22.455Z,4.80
2019-06-27T05:03:22.453Z,4.60
2019-06-27T05:04:22.448Z,5.60
2019-06-27T05:05:22.446Z,5.30
2019-06-27T05:06:22.448Z,4.20
2019-06-27T05:07:22.446Z,5.00
2019-06-27T05:08:22.442Z,5.10
2019-06-27T05:09:22.441Z,5.00
2019-06-27T05:10:22.437Z,4.80
2019-06-27T05:11:22.433Z,5.00
2019-06-27T05:12:22.435Z,4.60
2019-06-27T05:13:22.431Z,5.20
2019-06-27T05:14:22.433Z,5.00
2019-06-27T05:15:22.432Z,5.30
2019-06-27T05:16:22.432Z,4.20
2019-06-27T05:17:22.429Z,5.10
2019-06-27T05:18:22.423Z,5.30
2019-06-27T05:19:22.429Z,5.30
2019-06-27T05:20:22.438Z,4.30
2019-06-27T05:21:22.422Z,5.20
2019-06-27T05:22:22.416Z,4.60
2019-06-27T05:23:22.422Z,4.90
2019-06-27T05:24:22.414Z,5.40
2019-06-27T05:25:22.409Z,5.20
2019-06-27T05:26:22.414Z,5.10
2019-06-27T05:27:22.411Z,4.40
2019-06-27T05:28:22.416Z,5.00
2019-06-27T05:29:22.410Z,5.20
2019-06-27T05:30:22.404Z,5.10
2019-06-27T05:31:22.406Z,4.70
2019-06-27T05:32:22.408Z,4.70
2019-06-27T05:33:22.414Z,4.60
2019-06-27T05:34:22.411Z,4.70
2019-06-27T05:35:22.411Z,4.70
2019-06-27T05:36:22.412Z,4.60
2019-06-27T05:37:22.408Z,4.30
2019-06-27T05:38:22.413Z,5.40
2019-06-27T05:39:22.414Z,4.50
2019-06-27T05:40:22.421Z,5.00
2019-06-27T05:41:22.414Z,4.90
2019-06-27T05:42:22.410Z,4.80
2019-06-27T05:43:22.411Z,4.40
2019-06-27T05:44:22.414Z,4.60
2019-06-27T05:45:22.413Z,4.50
2019-06-27T05:46:22.422Z,3.90
2019-06-27T05:47:22.422Z,4.40
2019-06-27T05:48:22.432Z,4.40
2019-06-27T05:49:22.429Z,4.50
2019-06-27T05:50:22.428Z,4.30
2019-06-27T05:51:22.445Z,5.60
2019-06-27T05:52:22.466Z,4.20
2019-06-27T05:53:22.440Z,4.10
2019-06-27T05:54:22.441Z,5.40
2019-06-27T05:55:22.445Z,4.30
2019-06-27T05:56:22.444Z,4.60
2019-06-27T05:57:22.448Z,4.50
2019-06-27T05:58:22.456Z,4.70
2019-06-27T05:59:22.462Z,4.10
2019-06-27T06:00:28.992Z,4.20
2019-06-27T06:01:22.477Z,4.40
2019-06-27T06:02:22.468Z,4.00
2019-06-27T06:03:22.475Z,3.70
2019-06-27T06:04:24.089Z,4.50
2019-06-27T06:05:22.488Z,4.10
2019-06-27T06:06:22.512Z,4.50
2019-06-27T06:07:22.500Z,5.10
2019-06-27T06:08:22.501Z,5.40
2019-06-27T06:09:22.506Z,6.20
2019-06-27T06:10:22.522Z,6.20
2019-06-27T06:11:22.561Z,5.90
2019-06-27T06:12:22.538Z,6.70
2019-06-27T06:13:22.529Z,6.50
2019-06-27T06:14:22.532Z,6.10
2019-06-27T06:15:22.540Z,6.20
2019-06-27T06:16:22.542Z,6.40
2019-06-27T06:17:22.546Z,6.40
2019-06-27T06:18:22.560Z,6.40
2019-06-27T06:19:22.564Z,5.90
2019-06-27T06:20:22.573Z,6.30
2019-06-27T06:21:22.582Z,5.80
2019-06-27T06:22:22.580Z,6.10
2019-06-27T06:23:22.601Z,5.30
2019-06-27T06:24:22.598Z,6.00
2019-06-27T06:25:22.605Z,5.60
2019-06-27T06:26:22.613Z,6.00
2019-06-27T06:27:22.616Z,5.90
2019-06-27T06:28:22.620Z,5.10
2019-06-27T06:29:22.626Z,5.20
2019-06-27T06:30:22.639Z,5.00
2019-06-27T06:31:22.647Z,5.40
2019-06-27T06:32:22.681Z,5.10
2019-06-27T06:33:22.657Z,4.90
2019-06-27T06:34:22.662Z,4.70
2019-06-27T06:35:22.669Z,5.70
2019-06-27T06:36:22.678Z,5.00
2019-06-27T06:37:22.683Z,5.20
2019-06-27T06:38:22.695Z,5.50
2019-06-27T06:39:22.701Z,5.40
2019-06-27T06:40:22.701Z,5.00
2019-06-27T06:41:22.710Z,4.80
2019-06-27T06:42:22.716Z,5.20
2019-06-27T06:43:22.750Z,5.00
2019-06-27T06:44:22.730Z,4.90
2019-06-27T06:45:22.732Z,5.20
2019-06-27T06:46:22.735Z,4.80
2019-06-27T06:47:22.746Z,5.40
2019-06-27T06:48:22.748Z,4.30
2019-06-27T06:49:22.753Z,4.90
2019-06-27T06:50:23.632Z,4.80
2019-06-27T06:51:22.770Z,4.80
2019-06-27T06:52:22.782Z,4.80
2019-06-27T06:53:22.787Z,5.10
2019-06-27T06:54:22.798Z,4.60
2019-06-27T06:55:22.808Z,4.60
2019-06-27T06:56:22.810Z,4.70
2019-06-27T06:57:22.817Z,4.90
2019-06-27T06:58:22.820Z,4.80
2019-06-27T06:59:22.829Z,5.00
2019-06-27T07:00:22.835Z,4.90
2019-06-27T07:01:22.848Z,4.70
2019-06-27T07:02:22.852Z,4.50
2019-06-27T07:03:22.864Z,4.20
2019-06-27T07:04:22.873Z,4.60
2019-06-27T07:05:22.974Z,4.70
2019-06-27T07:06:22.885Z,4.10
2019-06-27T07:07:22.895Z,4.40
2019-06-27T07:08:22.899Z,4.20
2019-06-27T07:09:22.912Z,4.50
2019-06-27T07:10:22.924Z,4.70
2019-06-27T07:11:22.934Z,4.80
2019-06-27T07:12:22.941Z,4.40
2019-06-27T07:13:22.950Z,5.00
2019-06-27T07:14:22.963Z,5.50
2019-06-27T07:15:22.975Z,4.50
2019-06-27T07:16:22.994Z,4.50
2019-06-27T07:17:22.998Z,4.50
2019-06-27T07:18:23.004Z,4.70
2019-06-27T07:19:23.017Z,4.80
2019-06-27T07:20:23.026Z,4.40
2019-06-27T07:21:23.037Z,4.50
2019-06-27T07:22:23.051Z,4.50
2019-06-27T07:23:23.064Z,4.60
2019-06-27T07:24:23.085Z,5.10
2019-06-27T07:25:23.084Z,5.00
2019-06-27T07:26:23.092Z,5.00
2019-06-27T07:27:23.103Z,4.70
2019-06-27T07:28:23.119Z,4.40
2019-06-27T07:29:23.129Z,5.00
2019-06-27T07:30:23.141Z,5.00
2019-06-27T07:31:23.150Z,4.70
2019-06-27T07:32:23.165Z,5.10
2019-06-27T07:33:23.175Z,4.70
2019-06-27T07:34:23.196Z,4.70
2019-06-27T07:35:23.204Z,4.80
2019-06-27T07:36:23.221Z,5.30
2019-06-27T07:37:23.232Z,4.80
2019-06-27T07:38:23.234Z,4.50
2019-06-27T07:39:23.252Z,4.80
2019-06-27T07:40:23.256Z,4.70
2019-06-27T07:41:23.267Z,4.30
2019-06-27T07:42:23.302Z,4.20
2019-06-27T07:43:23.317Z,4.10
2019-06-27T07:44:23.302Z,4.20
2019-06-27T07:45:23.315Z,4.40
2019-06-27T07:46:25.511Z,4.40
2019-06-27T07:47:23.343Z,4.60
2019-06-27T07:48:23.358Z,4.40
2019-06-27T07:49:23.381Z,4.10
2019-06-27T07:50:23.378Z,5.00
2019-06-27T07:51:23.389Z,4.40
2019-06-27T07:52:23.399Z,4.40
2019-06-27T07:53:23.413Z,4.40
2019-06-27T07:54:23.496Z,4.10
2019-06-27T07:55:23.442Z,4.50
2019-06-27T07:56:23.447Z,4.20
2019-06-27T07:57:23.458Z,4.10
2019-06-27T07:58:23.467Z,3.90
2019-06-27T07:59:23.485Z,4.50
2019-06-27T08:00:23.495Z,4.10
2019-06-27T08:01:34.367Z,3.90
2019-06-27T08:02:23.516Z,3.80
2019-06-27T08:03:23.533Z,4.40
2019-06-27T08:04:23.545Z,4.30
2019-06-27T08:05:23.556Z,4.10
2019-06-27T08:06:23.569Z,3.80
2019-06-27T08:07:23.588Z,4.20
2019-06-27T08:08:23.597Z,3.90
2019-06-27T08:09:23.607Z,3.30
2019-06-27T08:10:23.616Z,3.80
2019-06-27T08:11:23.641Z,3.50
2019-06-27T08:12:23.644Z,3.80
2019-06-27T08:13:23.655Z,3.50
2019-06-27T08:14:23.680Z,3.90
2019-06-27T08:15:23.686Z,3.50
2019-06-27T08:16:23.695Z,4.10
2019-06-27T08:17:23.710Z,3.80
2019-06-27T08:18:23.723Z,4.30
2019-06-27T08:19:23.739Z,4.00
2019-06-27T08:20:23.750Z,3.60
2019-06-27T08:21:23.762Z,4.60
2019-06-27T08:22:23.774Z,4.20
2019-06-27T08:23:37.181Z,4.10
2019-06-27T08:24:23.828Z,3.90
2019-06-27T08:25:23.813Z,4.10
2019-06-27T08:26:23.832Z,4.40
2019-06-27T08:27:23.848Z,4.00
2019-06-27T08:28:23.863Z,3.80
2019-06-27T08:29:23.875Z,3.90
2019-06-27T08:30:23.887Z,3.40
2019-06-27T08:31:23.901Z,3.80
2019-06-27T08:32:23.922Z,4.30
2019-06-27T08:33:23.928Z,3.80
2019-06-27T08:34:23.939Z,4.10
2019-06-27T08:35:23.955Z,4.10
2019-06-27T08:36:23.973Z,3.90
2019-06-27T08:37:23.979Z,4.20
2019-06-27T08:38:23.998Z,4.10
2019-06-27T08:39:24.015Z,3.90
2019-06-27T08:40:24.026Z,3.80
2019-06-27T08:41:24.038Z,3.80
2019-06-27T08:42:24.068Z,3.90
2019-06-27T08:43:24.072Z,3.90
2019-06-27T08:44:24.081Z,3.70
2019-06-27T08:45:24.094Z,3.70
2019-06-27T08:46:24.113Z,3.40
2019-06-27T08:47:24.129Z,3.60
2019-06-27T08:48:24.139Z,3.60
2019-06-27T08:49:24.168Z,3.60
2019-06-27T08:50:24.177Z,3.80
2019-06-27T08:51:24.190Z,3.70
2019-06-27T08:52:24.200Z,3.50
2019-06-27T08:53:24.272Z,3.80
2019-06-27T08:54:24.226Z,3.50
2019-06-27T08:55:24.241Z,3.70
2019-06-27T08:56:24.257Z,4.00
2019-06-27T08:57:24.272Z,3.80
2019-06-27T08:58:24.292Z,4.70
2019-06-27T08:59:24.306Z,3.80
2019-06-27T09:00:24.327Z,4.00
2019-06-27T09:01:24.341Z,4.20
2019-06-27T09:02:24.355Z,3.70
2019-06-27T09:03:24.369Z,3.90
2019-06-27T09:04:24.393Z,4.90
2019-06-27T09:05:24.407Z,4.80
2019-06-27T09:06:24.417Z,3.90
2019-06-27T09:07:24.444Z,4.30
2019-06-27T09:08:24.451Z,4.20
2019-06-27T09:09:24.476Z,4.30
2019-06-27T09:10:24.486Z,4.20
2019-06-27T09:11:24.506Z,4.30
2019-06-27T09:12:24.523Z,4.00
2019-06-27T09:13:24.548Z,4.60
2019-06-27T09:14:24.554Z,3.80
2019-06-27T09:15:24.571Z,4.80
2019-06-27T09:16:24.606Z,4.50
2019-06-27T09:17:24.603Z,4.40
2019-06-27T09:18:24.624Z,4.30
2019-06-27T09:19:24.643Z,4.30
2019-06-27T09:20:24.669Z,4.30
2019-06-27T09:21:24.673Z,4.20
2019-06-27T09:22:24.694Z,5.00
2019-06-27T09:23:24.727Z,4.30
2019-06-27T09:24:24.754Z,4.30
2019-06-27T09:25:24.749Z,4.40
2019-06-27T09:26:24.777Z,4.00
2019-06-27T09:27:24.781Z,4.40
2019-06-27T09:28:24.798Z,4.30
2019-06-27T09:29:24.817Z,4.30
2019-06-27T09:30:24.892Z,4.20
2019-06-27T09:31:24.856Z,4.00
2019-06-27T09:32:26.353Z,4.10
2019-06-27T09:33:24.894Z,4.20
2019-06-27T09:34:24.899Z,4.50
2019-06-27T09:35:24.917Z,4.40
2019-06-27T09:36:24.937Z,3.80
2019-06-27T09:37:24.952Z,4.30
2019-06-27T09:38:24.967Z,4.30
2019-06-27T09:39:27.093Z,4.10
2019-06-27T09:40:25.003Z,4.40
2019-06-27T09:41:25.046Z,4.10
2019-06-27T09:42:25.050Z,3.80
2019-06-27T09:43:25.053Z,4.20
2019-06-27T09:44:25.071Z,4.30
2019-06-27T09:45:25.087Z,4.40
2019-06-27T09:46:25.101Z,4.70
2019-06-27T09:47:25.118Z,4.60
2019-06-27T09:48:25.129Z,4.60
2019-06-27T09:49:25.152Z,4.60
2019-06-27T09:50:25.168Z,4.20
2019-06-27T09:51:25.181Z,4.10
2019-06-27T09:52:25.195Z,4.70
2019-06-27T09:53:25.211Z,4.30
2019-06-27T09:54:25.230Z,4.50
2019-06-27T09:55:25.246Z,4.80
2019-06-27T09:56:25.266Z,4.90
2019-06-27T09:57:25.282Z,4.30
2019-06-27T09:58:25.293Z,4.20
2019-06-27T09:59:25.310Z,4.70
2019-06-27T10:00:25.362Z,4.20
2019-06-27T10:01:25.419Z,4.10
2019-06-27T10:02:40.514Z,4.20
2019-06-27T10:03:25.379Z,4.60
2019-06-27T10:04:25.394Z,4.70
2019-06-27T10:05:25.409Z,4.10
2019-06-27T10:06:26.391Z,4.70
2019-06-27T10:07:25.440Z,4.60
2019-06-27T10:08:25.462Z,5.30
2019-06-27T10:09:25.479Z,5.30
2019-06-27T10:10:25.495Z,5.40
2019-06-27T10:11:25.506Z,5.40
2019-06-27T10:12:40.941Z,4.90
2019-06-27T10:13:25.557Z,4.70
2019-06-27T10:14:25.562Z,5.20
2019-06-27T10:15:25.579Z,4.90
2019-06-27T10:16:25.592Z,5.20
2019-06-27T10:17:25.613Z,4.90
2019-06-27T10:18:25.628Z,5.10
2019-06-27T10:19:25.646Z,4.80
2019-06-27T10:20:25.667Z,4.60
2019-06-27T10:21:25.682Z,4.50
2019-06-27T10:22:25.695Z,4.80
2019-06-27T10:23:25.750Z,4.60
2019-06-27T10:24:25.733Z,4.30
2019-06-27T10:25:25.750Z,4.20
2019-06-27T10:26:25.763Z,4.50
2019-06-27T10:27:25.780Z,4.40
2019-06-27T10:28:25.795Z,4.30
2019-06-27T10:29:25.821Z,4.50
2019-06-27T10:30:25.837Z,4.30
2019-06-27T10:31:25.850Z,4.50
2019-06-27T10:32:25.865Z,4.20
2019-06-27T10:33:25.880Z,4.30
2019-06-27T10:34:25.892Z,5.00
2019-06-27T10:35:25.910Z,4.20
2019-06-27T10:36:25.931Z,4.60
2019-06-27T10:37:25.947Z,4.50
2019-06-27T10:38:25.968Z,4.60
2019-06-27T10:39:25.994Z,4.80
2019-06-27T10:40:26.002Z,4.40
2019-06-27T10:41:26.013Z,4.60
2019-06-27T10:42:26.034Z,4.50
2019-06-27T10:43:26.053Z,4.60
2019-06-27T10:44:26.066Z,4.40
2019-06-27T10:45:26.082Z,4.60
2019-06-27T10:46:26.118Z,5.10
2019-06-27T10:47:26.117Z,4.30
2019-06-27T10:48:26.129Z,4.90
2019-06-27T10:49:26.144Z,4.20
2019-06-27T10:50:26.172Z,4.70
2019-06-27T10:51:26.184Z,4.60
2019-06-27T10:52:26.204Z,4.60
2019-06-27T10:53:26.219Z,4.60
2019-06-27T10:54:26.233Z,4.60
2019-06-27T10:55:26.250Z,4.40
2019-06-27T10:56:26.277Z,3.90
2019-06-27T10:57:26.283Z,4.30
2019-06-27T10:58:26.297Z,4.80
2019-06-27T10:59:26.314Z,5.10
2019-06-27T11:00:26.327Z,4.90
2019-06-27T11:01:26.389Z,4.70
2019-06-27T11:02:26.365Z,4.50
2019-06-27T11:03:26.378Z,4.50
2019-06-27T11:04:26.395Z,4.40
2019-06-27T11:05:26.410Z,3.90
2019-06-27T11:06:26.430Z,4.10
2019-06-27T11:07:26.436Z,5.60
2019-06-27T11:08:26.455Z,4.10
2019-06-27T11:09:26.473Z,4.40
2019-06-27T11:10:26.488Z,4.40
2019-06-27T11:11:26.506Z,4.50
2019-06-27T11:12:26.516Z,4.20
2019-06-27T11:13:26.542Z,4.50
2019-06-27T11:14:26.551Z,4.40
2019-06-27T11:15:26.581Z,4.60
2019-06-27T11:16:26.605Z,4.70
2019-06-27T11:17:26.597Z,4.00
2019-06-27T11:18:26.607Z,3.80
2019-06-27T11:19:26.621Z,4.30
2019-06-27T11:20:26.648Z,4.30
2019-06-27T11:21:26.657Z,4.00
2019-06-27T11:22:26.681Z,4.30
2019-06-27T11:23:26.693Z,4.50
2019-06-27T11:24:26.706Z,4.20
2019-06-27T11:25:26.716Z,4.80
2019-06-27T11:26:26.730Z,4.50
2019-06-27T11:27:27.542Z,4.40
2019-06-27T11:28:26.761Z,4.40
2019-06-27T11:29:26.775Z,4.30
2019-06-27T11:30:26.781Z,4.70
2019-06-27T11:31:26.800Z,4.80
2019-06-27T11:32:26.812Z,4.50
2019-06-27T11:33:32.442Z,4.00
2019-06-27T11:34:26.834Z,3.90
2019-06-27T11:35:26.846Z,4.10
2019-06-27T11:36:26.856Z,3.90
2019-06-27T11:37:26.864Z,4.20
2019-06-27T11:38:26.869Z,4.10
2019-06-27T11:39:26.879Z,4.90
2019-06-27T11:40:26.887Z,4.00
2019-06-27T11:41:26.892Z,4.10
2019-06-27T11:42:29.796Z,4.00
2019-06-27T11:43:26.914Z,4.10
2019-06-27T11:44:26.918Z,4.00
2019-06-27T11:45:26.952Z,3.90
2019-06-27T11:46:26.939Z,4.30
2019-06-27T11:47:26.945Z,4.30
2019-06-27T11:48:26.954Z,4.00
2019-06-27T11:49:26.961Z,3.60
2019-06-27T11:50:26.967Z,3.60
2019-06-27T11:51:26.975Z,4.20
2019-06-27T11:52:26.977Z,3.80
2019-06-27T11:53:26.983Z,4.30
2019-06-27T11:54:26.995Z,4.10
2019-06-27T11:55:27.002Z,3.90
2019-06-27T11:56:27.002Z,3.60
2019-06-27T11:57:27.010Z,4.10
2019-06-27T11:58:27.012Z,3.80
2019-06-27T11:59:27.018Z,3.80
2019-06-27T12:00:27.028Z,3.80
2019-06-27T12:01:27.036Z,3.40
2019-06-27T12:02:27.031Z,3.60
2019-06-27T12:03:27.042Z,3.70
2019-06-27T12:04:27.046Z,3.50
2019-06-27T12:05:27.077Z,3.40
2019-06-27T12:06:27.060Z,3.60
2019-06-27T12:07:27.071Z,3.50
2019-06-27T12:08:27.070Z,3.30
2019-06-27T12:09:27.076Z,3.50
2019-06-27T12:10:27.077Z,3.00
2019-06-27T12:11:27.081Z,3.00
2019-06-27T12:12:27.085Z,3.00
2019-06-27T12:13:27.087Z,3.10
2019-06-27T12:14:27.099Z,3.30
2019-06-27T12:15:27.105Z,3.10
2019-06-27T12:16:27.106Z,2.70
2019-06-27T12:17:27.110Z,2.70
2019-06-27T12:18:27.118Z,3.00
2019-06-27T12:19:27.122Z,2.50
2019-06-27T12:20:27.128Z,3.00
2019-06-27T12:21:27.145Z,2.40
2019-06-27T12:22:27.134Z,2.70
2019-06-27T12:23:27.137Z,3.50
2019-06-27T12:24:27.147Z,2.30
2019-06-27T12:25:27.146Z,2.50
2019-06-27T12:26:27.153Z,2.90
2019-06-27T12:27:27.159Z,2.40
2019-06-27T12:28:27.166Z,2.60
2019-06-27T12:29:27.171Z,2.60
2019-06-27T12:30:27.171Z,3.40
2019-06-27T12:31:27.173Z,2.50
2019-06-27T12:32:27.181Z,2.70
2019-06-27T12:33:27.189Z,3.00
2019-06-27T12:34:27.186Z,3.00
2019-06-27T12:35:27.189Z,3.10
2019-06-27T12:36:27.190Z,3.40
2019-06-27T12:37:27.193Z,3.10
2019-06-27T12:38:27.207Z,2.80
2019-06-27T12:39:27.207Z,3.30
2019-06-27T12:40:27.217Z,3.00
2019-06-27T12:41:27.214Z,3.10
2019-06-27T12:42:32.542Z,3.20
2019-06-27T12:43:27.225Z,3.30
2019-06-27T12:44:27.225Z,2.80
2019-06-27T12:45:27.229Z,3.00
2019-06-27T12:46:27.237Z,2.90
2019-06-27T12:47:27.239Z,2.60
2019-06-27T12:48:27.242Z,2.80
2019-06-27T12:49:44.850Z,2.60
2019-06-27T12:50:27.250Z,2.60
2019-06-27T12:51:27.254Z,3.20
2019-06-27T12:52:27.256Z,3.50
2019-06-27T12:53:27.258Z,2.80
2019-06-27T12:54:27.258Z,3.20
2019-06-27T12:55:27.262Z,3.50
2019-06-27T12:56:27.271Z,2.90
2019-06-27T12:57:27.269Z,2.80
2019-06-27T12:58:27.277Z,3.30
2019-06-27T12:59:27.312Z,2.80
2019-06-27T13:00:27.326Z,2.70
2019-06-27T13:01:27.290Z,3.60
2019-06-27T13:02:27.290Z,3.10
2019-06-27T13:03:27.295Z,2.80
2019-06-27T13:04:27.406Z,3.10
2019-06-27T13:05:27.306Z,2.60
2019-06-27T13:06:27.310Z,3.00
2019-06-27T13:07:27.307Z,2.90
2019-06-27T13:08:27.307Z,3.00
2019-06-27T13:09:27.313Z,3.30
2019-06-27T13:10:27.319Z,2.80
2019-06-27T13:11:27.324Z,2.90
2019-06-27T13:12:27.339Z,2.50
2019-06-27T13:13:30.413Z,3.10
2019-06-27T13:14:27.328Z,2.50
2019-06-27T13:15:27.337Z,3.10
2019-06-27T13:16:30.900Z,2.80
2019-06-27T13:17:27.380Z,3.30
2019-06-27T13:18:27.360Z,2.90